Bentonville, Arkansas
Current Conditions -  °F | °C
As of 11:35 AM on Monday 22 Dec 2014 (Local Time) from KVBT Reporting Station
Overcast Overcast  
Wind Chill: 45°   Ceiling: 1700
Heat Index: 48°   Visibility: 4mi
Dew Point: 46°   Wind: 8mph
Humidity: 93%   Direction: 170°S
Pressure: 29.58"   Gusts: NA
Location:  36.37°N, 94.21°W
Report Text: KVBT 221735Z AUTO 17007KT 4SM SCT006 OVC017 09/08 A2958 RMK AO1 P0001
Loading
Personal Weather Stations






























Interactive Weather Map New forecast layout! Learn more

10-Day Weather Forecast

Advertisements
Track Severe Weather on mobile